Vision — WDF6306 — position and weather

sailwx.info

Track history (hours):
 
Tides and Currents Weather Stations Pressure Air Temp Water Temp Dewpoint Dewpoint Depression Visibility Wind Speed Wind Dir Waves Ship Positions

Vision

Owner: INTREPID SHIP MANAGEMENT, JACKSONVILLE, FL. More information available from US FCC via Universal Licensing System and Coast Guard Vessel Documentation Center.

Last reported at 2017-Nov-19 19:08 UTC. Time now 2017-Nov-21 21:14 UTC.
Position N 38°02' W 122°08'.

Length 199 m; draft 6.2 m.

Type: Towing. MMSI: 366904000.

Date/timePositionNaut miles runAvg speedWind from/ knotsBaromVisibWave heightAir tempDewpointWater temp
2017-Nov-19 19:08N 38°02' W 122°08'0 0.0
2017-Nov-19 18:56N 38°02' W 122°08'0 0.0
2017-Nov-19 18:26N 38°02' W 122°08'0 0.0
2017-Nov-19 17:56N 38°02' W 122°08'0 0.0
2017-Nov-19 17:26N 38°02' W 122°08'0 0.0
2017-Nov-19 16:56N 38°02' W 122°08'0 0.0
2017-Nov-19 16:26N 38°02' W 122°08'0 0.0
2017-Nov-19 15:56N 38°02' W 122°08'0 0.0
2017-Nov-19 15:20N 38°02' W 122°08'0 0.0
2017-Nov-19 14:56N 38°02' W 122°08'0 0.0
2017-Nov-19 14:26N 38°02' W 122°08'0 0.0
2017-Nov-19 13:38N 38°02' W 122°08'0 0.0
2017-Nov-19 13:26N 38°02' W 122°08'0 0.0
2017-Nov-19 12:50N 38°02' W 122°08'0 0.0
2017-Nov-19 12:26N 38°02' W 122°08'0 0.0
2017-Nov-19 11:56N 38°02' W 122°08'0 0.0
2017-Nov-19 11:26N 38°02' W 122°08'0 0.0
2017-Nov-19 10:56N 38°02' W 122°08'0 0.0
2017-Nov-19 10:20N 38°02' W 122°08'0 0.0
2017-Nov-19 09:56N 38°02' W 122°08'0 0.0
2017-Nov-19 09:26N 38°02' W 122°08'0 0.0
2017-Nov-19 08:56N 38°02' W 122°08'0 0.0
2017-Nov-19 08:26N 38°02' W 122°08'0 0.0
2017-Nov-19 07:56N 38°02' W 122°08'0 0.0
2017-Nov-19 07:26N 38°02' W 122°08'0 0.0
2017-Nov-19 06:56N 38°02' W 122°08'0 0.0
2017-Nov-19 06:30N 38°02' W 122°08'1 1.2
2017-Nov-19 06:00N 38°02' W 122°09'3 6.1
2017-Nov-19 05:30N 38°03' W 122°12'4 8.0
2017-Nov-19 05:00N 38°03' W 122°17'5 9.9
2017-Nov-19 04:30N 38°02' W 122°23'510.3
2017-Nov-19 04:01N 37°57' W 122°27'510.3
2017-Nov-19 03:30N 37°52' W 122°25'4 7.7
2017-Nov-19 03:01N 37°50' W 122°28'5 9.9
2017-Nov-19 02:31N 37°47' W 122°34'611.3
2017-Nov-19 02:01N 37°45' W 122°40'5 9.3
2017-Nov-19 01:31N 37°42' W 122°45'5 9.7
2017-Nov-19 01:00N 37°39' W 122°50'5 9.9
2017-Nov-19 00:30N 37°36' W 122°55'5 9.6
2017-Nov-19 00:01N 37°34' W 123°00'5 9.8
2017-Nov-18 23:30N 37°32' W 123°06'610.0
2017-Nov-18 22:55N 37°32' W 123°13'32 9.7
2017-Nov-18 19:37N 37°47' W 123°50'210.6
2017-Nov-18 19:27N 37°48' W 123°51'510.5
2017-Nov-18 19:00N 37°51' W 123°56'610.4
2017-Nov-18 18:28N 37°55' W 124°01'810.5
2017-Nov-18 17:43N 37°60' W 124°09'410.8
2017-Nov-18 17:24N 38°02' W 124°12'410.5
2017-Nov-18 17:00N 38°05' W 124°16'510.6
2017-Nov-18 16:30N 38°08' W 124°21'510.4
2017-Nov-18 16:00N 38°12' W 124°26'510.1
2017-Nov-18 15:30N 38°15' W 124°31'  
2017-Nov-16 09:46N 48°20' W 125°10'510.6
2017-Nov-16 09:18N 48°25' W 125°07'410.3
2017-Nov-16 08:55N 48°28' W 125°04'4 9.5
2017-Nov-16 08:29N 48°31' W 124°60'510.3
2017-Nov-16 08:00N 48°31' W 124°52'5 9.5
2017-Nov-16 07:30N 48°31' W 124°45'5 9.8
2017-Nov-16 07:00N 48°29' W 124°38'510.0
2017-Nov-16 06:31N 48°27' W 124°31'510.4
2017-Nov-16 06:01N 48°25' W 124°24'610.9
2017-Nov-16 05:30N 48°23' W 124°16'612.7
2017-Nov-16 05:00N 48°21' W 124°08'713.4
2017-Nov-16 04:31N 48°18' W 123°58'612.0
2017-Nov-16 04:01N 48°17' W 123°50'612.3
2017-Nov-16 03:30N 48°16' W 123°40'713.9
2017-Nov-16 03:00N 48°15' W 123°30'612.4
2017-Nov-16 02:30N 48°10' W 123°24'3 5.5
2017-Nov-16 02:00N 48°08' W 123°26'0 0.2
2017-Nov-16 01:30N 48°08' W 123°26'0 0.0
2017-Nov-16 00:55N 48°08' W 123°26'0 0.1
2017-Nov-16 00:25N 48°08' W 123°26'0 0.1
2017-Nov-15 23:57N 48°08' W 123°26'0 0.1
2017-Nov-15 23:18N 48°08' W 123°26'0 0.0
2017-Nov-15 23:00N 48°08' W 123°26'0 0.1
2017-Nov-15 22:27N 48°08' W 123°26'0 0.1
2017-Nov-15 21:51N 48°08' W 123°26'0 0.0
2017-Nov-15 21:24N 48°08' W 123°26'0 0.1
2017-Nov-15 20:57N 48°08' W 123°26'0 0.1
2017-Nov-15 20:30N 48°08' W 123°26'0 0.1
2017-Nov-15 19:48N 48°08' W 123°26'0 0.1
2017-Nov-15 19:30N 48°08' W 123°26'0 0.0
2017-Nov-15 19:00N 48°08' W 123°26'0 0.0
2017-Nov-15 18:30N 48°08' W 123°26'0 0.0
2017-Nov-15 18:00N 48°08' W 123°26'0 0.1
2017-Nov-15 17:27N 48°08' W 123°26'0 0.1
2017-Nov-15 17:00N 48°08' W 123°26'0 0.1
2017-Nov-15 16:24N 48°08' W 123°26'0 0.2
2017-Nov-15 15:54N 48°08' W 123°26'0 0.1
2017-Nov-15 15:18N 48°08' W 123°26'0 0.2
2017-Nov-15 15:00N 48°08' W 123°26'0 0.0
2017-Nov-15 14:18N 48°08' W 123°26'0 0.1
2017-Nov-15 13:51N 48°08' W 123°26'0 0.4
2017-Nov-15 13:30N 48°08' W 123°26'0 0.2
2017-Nov-15 13:00N 48°08' W 123°26'0 0.1
2017-Nov-15 12:24N 48°08' W 123°26'0 0.1
2017-Nov-15 11:59N 48°08' W 123°26'0 0.0
2017-Nov-15 11:27N 48°08' W 123°26'0 0.0
2017-Nov-15 11:00N 48°08' W 123°26'0 0.1
2017-Nov-15 10:30N 48°08' W 123°26'0 0.0
2017-Nov-15 10:00N 48°08' W 123°26'0 0.0
2017-Nov-15 09:24N 48°08' W 123°26'0 0.0
2017-Nov-15 08:27N 48°08' W 123°26'0 0.0
2017-Nov-15 05:42N 48°08' W 123°26'0 0.0
2017-Nov-15 05:21N 48°08' W 123°26'0 0.0
2017-Nov-15 04:51N 48°08' W 123°26'0 0.1
2017-Nov-15 04:25N 48°08' W 123°26'0 0.1
2017-Nov-15 03:48N 48°08' W 123°26'0 0.0
2017-Nov-15 03:30N 48°08' W 123°26'0 0.1
2017-Nov-15 02:57N 48°08' W 123°26'0 0.0
2017-Nov-15 02:24N 48°08' W 123°26'0 0.1
2017-Nov-15 02:00N 48°08' W 123°26'0 0.1
2017-Nov-15 01:27N 48°08' W 123°26'0 0.1
2017-Nov-15 00:57N 48°08' W 123°26'0 0.1
2017-Nov-15 00:30N 48°08' W 123°26'0 0.0
2017-Nov-14 23:57N 48°08' W 123°26'0 0.0
2017-Nov-14 23:30N 48°08' W 123°26'0 0.0
2017-Nov-14 22:57N 48°08' W 123°26'0 0.0
2017-Nov-14 22:30N 48°08' W 123°26'0 0.0
2017-Nov-14 22:00N 48°08' W 123°26'0 0.0
2017-Nov-14 21:30N 48°08' W 123°26'0 0.0
2017-Nov-14 21:00N 48°08' W 123°26'0 0.0
2017-Nov-14 20:27N 48°08' W 123°26'0 0.0
2017-Nov-14 19:57N 48°08' W 123°26'0 0.1
2017-Nov-14 19:30N 48°08' W 123°26'0 0.0
2017-Nov-14 18:57N 48°08' W 123°26'0 0.1
2017-Nov-14 18:30N 48°08' W 123°26'0 0.0
2017-Nov-14 17:54N 48°08' W 123°26'0 0.0
2017-Nov-14 17:30N 48°08' W 123°26'0 0.1
2017-Nov-14 17:00N 48°08' W 123°26'0 0.0
2017-Nov-14 16:30N 48°08' W 123°26'0 0.0
2017-Nov-14 16:00N 48°08' W 123°26'0 0.0
2017-Nov-14 15:30N 48°08' W 123°26'0 0.1
2017-Nov-14 15:00N 48°08' W 123°26'0 0.1
2017-Nov-14 14:27N 48°08' W 123°26'0 0.0
2017-Nov-14 13:57N 48°08' W 123°26'0 0.1
2017-Nov-14 13:30N 48°08' W 123°26'0 0.1
2017-Nov-14 12:57N 48°08' W 123°26'0 0.0
2017-Nov-14 12:30N 48°08' W 123°26'0 0.0
2017-Nov-14 11:54N 48°08' W 123°26'0 0.0
2017-Nov-14 11:30N 48°08' W 123°26'0 0.0
2017-Nov-14 11:00N 48°08' W 123°26'0 0.0
2017-Nov-14 10:30N 48°08' W 123°26'0 0.0
2017-Nov-14 09:57N 48°08' W 123°26'0 0.0
2017-Nov-14 09:30N 48°08' W 123°26'0 0.1
2017-Nov-14 08:57N 48°08' W 123°26'0 0.1
2017-Nov-14 08:30N 48°08' W 123°26'0 0.2
2017-Nov-14 07:57N 48°08' W 123°26'0 0.1
2017-Nov-14 07:27N 48°08' W 123°26'0 0.0
2017-Nov-14 07:00N 48°08' W 123°26'0 0.0
2017-Nov-14 06:30N 48°08' W 123°26'0 0.0
2017-Nov-14 05:57N 48°08' W 123°26'0 0.1
2017-Nov-14 05:30N 48°08' W 123°26'0 0.1
2017-Nov-14 04:54N 48°08' W 123°26'0 0.1
2017-Nov-14 04:30N 48°08' W 123°26'0 0.1
2017-Nov-14 04:00N 48°08' W 123°26'0 0.1
2017-Nov-14 03:21N 48°08' W 123°26'0 0.2
2017-Nov-14 03:00N 48°08' W 123°26'0 0.1
2017-Nov-14 02:27N 48°08' W 123°26'0 0.0
2017-Nov-14 02:00N 48°08' W 123°26'0 0.1
2017-Nov-14 01:30N 48°08' W 123°26'0 0.0
2017-Nov-14 01:00N 48°08' W 123°26'0 0.2
2017-Nov-14 00:30N 48°08' W 123°26'0 0.2
2017-Nov-14 00:00N 48°08' W 123°26'0 0.0
2017-Nov-13 23:30N 48°08' W 123°26'0 0.1
2017-Nov-13 23:00N 48°08' W 123°26'0 0.0
2017-Nov-13 22:30N 48°08' W 123°26'0 0.1
2017-Nov-13 22:00N 48°08' W 123°26'39 1.9
2017-Nov-13 02:01N 48°45' W 123°07'611.1
2017-Nov-13 01:29N 48°49' W 123°01'613.3
2017-Nov-13 01:00N 48°54' W 123°08'712.9
2017-Nov-13 00:30N 48°58' W 123°15'612.6
2017-Nov-13 00:00N 49°03' W 123°22'611.8
2017-Nov-12 23:30N 49°08' W 123°23'612.9
2017-Nov-12 23:00N 49°15' W 123°21'611.6
2017-Nov-12 22:30N 49°19' W 123°15'4 8.8
2017-Nov-12 22:00N 49°19' W 123°08'4 7.1
2017-Nov-12 21:30N 49°18' W 123°03'3 5.0
2017-Nov-12 20:59N 49°18' W 122°59'1 1.6
2017-Nov-12 20:26N 49°18' W 122°57'1 0.8
2017-Nov-12 19:18N 49°18' W 122°56'0 0.1
2017-Nov-12 18:45N 49°18' W 122°56'0 0.1
2017-Nov-12 18:21N 49°18' W 122°56'0 0.0
2017-Nov-12 18:00N 49°18' W 122°56'0 0.1
2017-Nov-12 17:30N 49°18' W 122°56'0 0.1
2017-Nov-12 15:54N 49°18' W 122°57'0 0.1
2017-Nov-12 14:36N 49°18' W 122°56'0 0.0
2017-Nov-12 14:30N 49°18' W 122°56'0 0.0
2017-Nov-12 13:30N 49°18' W 122°56'0 0.0
2017-Nov-12 12:00N 49°18' W 122°56'0 0.0
2017-Nov-12 10:48N 49°18' W 122°56'0 0.0
2017-Nov-12 10:12N 49°18' W 122°56'0 0.0
2017-Nov-12 10:00N 49°18' W 122°56'0 0.0
2017-Nov-12 08:36N 49°18' W 122°56'0 0.0
2017-Nov-12 08:18N 49°18' W 122°56'0 0.0
2017-Nov-12 07:51N 49°18' W 122°56'0 0.0
2017-Nov-12 07:31N 49°18' W 122°56'0 0.0
2017-Nov-12 07:00N 49°18' W 122°56'0 0.1
2017-Nov-12 06:30N 49°18' W 122°56'0 0.0
2017-Nov-12 06:00N 49°18' W 122°56'0 0.1
2017-Nov-12 05:30N 49°18' W 122°57'0 0.1
2017-Nov-12 05:00N 49°18' W 122°56'0 0.2
2017-Nov-12 04:30N 49°18' W 122°57'1 2.5
2017-Nov-12 04:01N 49°17' W 122°58'0 0.0
2017-Nov-12 03:30N 49°17' W 122°58'0 0.0
2017-Nov-12 03:00N 49°17' W 122°58'0 0.0
2017-Nov-12 02:23N 49°17' W 122°58'0 0.0
2017-Nov-12 01:53N 49°17' W 122°58'0 0.0
2017-Nov-12 01:29N 49°17' W 122°58'0 0.0
2017-Nov-12 00:53N 49°17' W 122°58'0 0.0
2017-Nov-12 00:14N 49°17' W 122°58'0 0.0
2017-Nov-11 23:59N 49°17' W 122°58'0 0.0
2017-Nov-11 23:17N 49°17' W 122°58'0 0.0
2017-Nov-11 22:59N 49°17' W 122°58'0 0.0
2017-Nov-11 22:29N 49°17' W 122°58'0 0.0
2017-Nov-11 21:53N 49°17' W 122°58'0 0.0
2017-Nov-11 20:53N 49°17' W 122°58'0 0.0
2017-Nov-11 20:23N 49°17' W 122°58'0 0.0
2017-Nov-11 19:41N 49°17' W 122°58'0 0.0
2017-Nov-11 19:23N 49°17' W 122°58'0 0.0
2017-Nov-11 18:59N 49°17' W 122°58'0 0.0
2017-Nov-11 18:29N 49°17' W 122°58'0 0.0
2017-Nov-11 17:53N 49°17' W 122°58'0 0.0
2017-Nov-11 17:11N 49°17' W 122°58'0 0.0
2017-Nov-11 16:44N 49°17' W 122°58'0 0.0
2017-Nov-11 16:20N 49°17' W 122°58'0 0.0
2017-Nov-11 15:59N 49°17' W 122°58'0 0.0
2017-Nov-11 15:26N 49°17' W 122°58'0 0.0
2017-Nov-11 14:53N 49°17' W 122°58'0 0.0
2017-Nov-11 14:17N 49°17' W 122°58'0 0.0
2017-Nov-11 13:59N 49°17' W 122°58'0 0.0
2017-Nov-11 13:23N 49°17' W 122°58'0 0.0
2017-Nov-11 12:50N 49°17' W 122°58'0 0.0
2017-Nov-11 12:23N 49°17' W 122°58'0 0.0
2017-Nov-11 11:59N 49°17' W 122°58'0 0.0
2017-Nov-11 11:26N 49°17' W 122°58'0 0.0
2017-Nov-11 10:47N 49°17' W 122°58'0 0.0
2017-Nov-11 08:26N 49°17' W 122°58'0 0.0
2017-Nov-11 07:53N 49°17' W 122°58'0 0.0
2017-Nov-11 06:17N 49°17' W 122°58'0 0.0
2017-Nov-11 05:35N 49°17' W 122°58'0 0.0
2017-Nov-11 05:17N 49°17' W 122°58'0 0.0
2017-Nov-11 04:41N 49°17' W 122°58'0 0.0
2017-Nov-11 04:23N 49°17' W 122°58'0 0.0
2017-Nov-11 03:56N 49°17' W 122°58'0 0.0
2017-Nov-11 03:26N 49°17' W 122°58'0 0.0
2017-Nov-11 02:59N 49°17' W 122°58'0 0.0
2017-Nov-11 02:11N 49°17' W 122°58'0 0.0
2017-Nov-11 01:59N 49°17' W 122°58'0 0.0
2017-Nov-11 01:26N 49°17' W 122°58'0 0.0
2017-Nov-11 00:56N 49°17' W 122°58'0 0.0
2017-Nov-11 00:08N 49°17' W 122°58'0 0.0
2017-Nov-10 23:59N 49°17' W 122°58'0 0.0
2017-Nov-10 23:11N 49°17' W 122°58'0 0.0
2017-Nov-10 22:56N 49°17' W 122°58'0 0.0
2017-Nov-10 22:26N 49°17' W 122°58'0 0.0
2017-Nov-10 21:56N 49°17' W 122°58'0 0.0
2017-Nov-10 21:29N 49°17' W 122°58'0 0.0
2017-Nov-10 20:59N 49°17' W 122°58'0 0.6
2017-Nov-10 20:30N 49°18' W 122°58'3 5.1
2017-Nov-10 20:00N 49°18' W 123°02'1 2.4
2017-Nov-10 19:30N 49°18' W 123°04'0 0.4
2017-Nov-10 19:00N 49°18' W 123°04'0 0.1
2017-Nov-10 18:27N 49°18' W 123°04'0 0.1
2017-Nov-10 18:00N 49°18' W 123°04'0 0.1
2017-Nov-10 17:30N 49°18' W 123°04'0 0.1
2017-Nov-10 17:00N 49°18' W 123°04'0 0.2
2017-Nov-10 16:30N 49°18' W 123°04'0 0.0
2017-Nov-10 16:00N 49°18' W 123°04'0 0.0
2017-Nov-10 15:30N 49°18' W 123°04'0 0.1
2017-Nov-10 14:57N 49°18' W 123°04'0 0.1
2017-Nov-10 14:30N 49°18' W 123°04'0 0.2
2017-Nov-10 14:00N 49°18' W 123°04'0 0.1
2017-Nov-10 13:30N 49°18' W 123°04'0 0.1
2017-Nov-10 13:00N 49°18' W 123°04'0 0.0
2017-Nov-10 12:30N 49°18' W 123°04'0 0.0
2017-Nov-10 12:00N 49°18' W 123°04'0 0.0
2017-Nov-10 11:30N 49°18' W 123°04'0 0.2
2017-Nov-10 11:00N 49°18' W 123°04'0 0.1
2017-Nov-10 10:24N 49°18' W 123°04'0 0.0
2017-Nov-10 10:00N 49°18' W 123°04'0 0.0
2017-Nov-10 09:30N 49°18' W 123°04'0 0.0
2017-Nov-10 09:00N 49°18' W 123°04'0 0.0
2017-Nov-10 08:30N 49°18' W 123°04'0 0.0
2017-Nov-10 08:00N 49°18' W 123°04'0 0.0
2017-Nov-10 07:30N 49°18' W 123°04'0 0.0
2017-Nov-10 07:00N 49°18' W 123°04'0 0.0
2017-Nov-10 06:30N 49°18' W 123°04'0 0.1
2017-Nov-10 06:00N 49°18' W 123°04'2 3.7
2017-Nov-10 05:30N 49°18' W 123°07'3 6.4
2017-Nov-10 05:00N 49°19' W 123°12'5 9.8
2017-Nov-10 04:31N 49°17' W 123°18'5 9.5
2017-Nov-10 04:00N 49°12' W 123°20'510.5
2017-Nov-10 03:30N 49°07' W 123°21'611.2
2017-Nov-10 03:00N 49°02' W 123°18'612.1
2017-Nov-10 02:30N 48°58' W 123°11'612.1
2017-Nov-10 02:00N 48°54' W 123°03'612.3
2017-Nov-10 01:30N 48°50' W 122°56'811.9
2017-Nov-10 00:50N 48°46' W 122°46'412.2
2017-Nov-10 00:30N 48°42' W 122°43'611.5
2017-Nov-10 00:00N 48°38' W 122°38'510.4
2017-Nov-09 23:30N 48°33' W 122°34'2 4.3
2017-Nov-09 22:57N 48°31' W 122°35'0 0.0
2017-Nov-09 22:27N 48°31' W 122°35'0 0.0
2017-Nov-09 21:57N 48°31' W 122°35'0 0.0
2017-Nov-09 21:27N 48°31' W 122°35'0 0.0
2017-Nov-09 20:51N 48°31' W 122°35'0 0.0
2017-Nov-09 20:27N 48°31' W 122°35'0 0.0
2017-Nov-09 19:57N 48°31' W 122°35'0 0.0
2017-Nov-09 19:27N 48°31' W 122°35'  
Track history (hours):
 
Tides and Currents Weather Stations Pressure Air Temp Water Temp Dewpoint Dewpoint Depression Visibility Wind Speed Wind Dir Waves Ship Positions

Vision

Owner: INTREPID SHIP MANAGEMENT, JACKSONVILLE, FL. More information available from US FCC via Universal Licensing System and Coast Guard Vessel Documentation Center.

Last reported at 2017-Nov-19 19:08 UTC. Time now 2017-Nov-21 21:14 UTC.
Position N 38°02' W 122°08'.

Length 199 m; draft 6.2 m.

Type: Towing. MMSI: 366904000.

Date/timePositionNaut miles runAvg speedWind from/ knotsBaromVisibWave heightAir tempDewpointWater temp
2017-Nov-19 19:08N 38°02' W 122°08'0 0.0
2017-Nov-19 18:56N 38°02' W 122°08'0 0.0
2017-Nov-19 18:26N 38°02' W 122°08'0 0.0
2017-Nov-19 17:56N 38°02' W 122°08'0 0.0
2017-Nov-19 17:26N 38°02' W 122°08'0 0.0
2017-Nov-19 16:56N 38°02' W 122°08'0 0.0
2017-Nov-19 16:26N 38°02' W 122°08'0 0.0
2017-Nov-19 15:56N 38°02' W 122°08'0 0.0
2017-Nov-19 15:20N 38°02' W 122°08'0 0.0
2017-Nov-19 14:56N 38°02' W 122°08'0 0.0
2017-Nov-19 14:26N 38°02' W 122°08'0 0.0
2017-Nov-19 13:38N 38°02' W 122°08'0 0.0
2017-Nov-19 13:26N 38°02' W 122°08'0 0.0
2017-Nov-19 12:50N 38°02' W 122°08'0 0.0
2017-Nov-19 12:26N 38°02' W 122°08'0 0.0
2017-Nov-19 11:56N 38°02' W 122°08'0 0.0
2017-Nov-19 11:26N 38°02' W 122°08'0 0.0
2017-Nov-19 10:56N 38°02' W 122°08'0 0.0
2017-Nov-19 10:20N 38°02' W 122°08'0 0.0
2017-Nov-19 09:56N 38°02' W 122°08'0 0.0
2017-Nov-19 09:26N 38°02' W 122°08'0 0.0
2017-Nov-19 08:56N 38°02' W 122°08'0 0.0
2017-Nov-19 08:26N 38°02' W 122°08'0 0.0
2017-Nov-19 07:56N 38°02' W 122°08'0 0.0
2017-Nov-19 07:26N 38°02' W 122°08'0 0.0
2017-Nov-19 06:56N 38°02' W 122°08'0 0.0
2017-Nov-19 06:30N 38°02' W 122°08'1 1.2
2017-Nov-19 06:00N 38°02' W 122°09'3 6.1
2017-Nov-19 05:30N 38°03' W 122°12'4 8.0
2017-Nov-19 05:00N 38°03' W 122°17'5 9.9
2017-Nov-19 04:30N 38°02' W 122°23'510.3
2017-Nov-19 04:01N 37°57' W 122°27'510.3
2017-Nov-19 03:30N 37°52' W 122°25'4 7.7
2017-Nov-19 03:01N 37°50' W 122°28'5 9.9
2017-Nov-19 02:31N 37°47' W 122°34'611.3
2017-Nov-19 02:01N 37°45' W 122°40'5 9.3
2017-Nov-19 01:31N 37°42' W 122°45'5 9.7
2017-Nov-19 01:00N 37°39' W 122°50'5 9.9
2017-Nov-19 00:30N 37°36' W 122°55'5 9.6
2017-Nov-19 00:01N 37°34' W 123°00'5 9.8
2017-Nov-18 23:30N 37°32' W 123°06'610.0
2017-Nov-18 22:55N 37°32' W 123°13'32 9.7
2017-Nov-18 19:37N 37°47' W 123°50'210.6
2017-Nov-18 19:27N 37°48' W 123°51'510.5
2017-Nov-18 19:00N 37°51' W 123°56'610.4
2017-Nov-18 18:28N 37°55' W 124°01'810.5
2017-Nov-18 17:43N 37°60' W 124°09'410.8
2017-Nov-18 17:24N 38°02' W 124°12'410.5
2017-Nov-18 17:00N 38°05' W 124°16'510.6
2017-Nov-18 16:30N 38°08' W 124°21'510.4
2017-Nov-18 16:00N 38°12' W 124°26'510.1
2017-Nov-18 15:30N 38°15' W 124°31'  
2017-Nov-16 09:46N 48°20' W 125°10'510.6
2017-Nov-16 09:18N 48°25' W 125°07'410.3
2017-Nov-16 08:55N 48°28' W 125°04'4 9.5
2017-Nov-16 08:29N 48°31' W 124°60'510.3
2017-Nov-16 08:00N 48°31' W 124°52'5 9.5
2017-Nov-16 07:30N 48°31' W 124°45'5 9.8
2017-Nov-16 07:00N 48°29' W 124°38'510.0
2017-Nov-16 06:31N 48°27' W 124°31'510.4
2017-Nov-16 06:01N 48°25' W 124°24'610.9
2017-Nov-16 05:30N 48°23' W 124°16'612.7
2017-Nov-16 05:00N 48°21' W 124°08'713.4
2017-Nov-16 04:31N 48°18' W 123°58'612.0
2017-Nov-16 04:01N 48°17' W 123°50'612.3
2017-Nov-16 03:30N 48°16' W 123°40'713.9
2017-Nov-16 03:00N 48°15' W 123°30'612.4
2017-Nov-16 02:30N 48°10' W 123°24'3 5.5
2017-Nov-16 02:00N 48°08' W 123°26'0 0.2
2017-Nov-16 01:30N 48°08' W 123°26'0 0.0
2017-Nov-16 00:55N 48°08' W 123°26'0 0.1
2017-Nov-16 00:25N 48°08' W 123°26'0 0.1
2017-Nov-15 23:57N 48°08' W 123°26'0 0.1
2017-Nov-15 23:18N 48°08' W 123°26'0 0.0
2017-Nov-15 23:00N 48°08' W 123°26'0 0.1
2017-Nov-15 22:27N 48°08' W 123°26'0 0.1
2017-Nov-15 21:51N 48°08' W 123°26'0 0.0
2017-Nov-15 21:24N 48°08' W 123°26'0 0.1
2017-Nov-15 20:57N 48°08' W 123°26'0 0.1
2017-Nov-15 20:30N 48°08' W 123°26'0 0.1
2017-Nov-15 19:48N 48°08' W 123°26'0 0.1
2017-Nov-15 19:30N 48°08' W 123°26'0 0.0
2017-Nov-15 19:00N 48°08' W 123°26'0 0.0
2017-Nov-15 18:30N 48°08' W 123°26'0 0.0
2017-Nov-15 18:00N 48°08' W 123°26'0 0.1
2017-Nov-15 17:27N 48°08' W 123°26'0 0.1
2017-Nov-15 17:00N 48°08' W 123°26'0 0.1
2017-Nov-15 16:24N 48°08' W 123°26'0 0.2
2017-Nov-15 15:54N 48°08' W 123°26'0 0.1
2017-Nov-15 15:18N 48°08' W 123°26'0 0.2
2017-Nov-15 15:00N 48°08' W 123°26'0 0.0
2017-Nov-15 14:18N 48°08' W 123°26'0 0.1
2017-Nov-15 13:51N 48°08' W 123°26'0 0.4
2017-Nov-15 13:30N 48°08' W 123°26'0 0.2
2017-Nov-15 13:00N 48°08' W 123°26'0 0.1
2017-Nov-15 12:24N 48°08' W 123°26'0 0.1
2017-Nov-15 11:59N 48°08' W 123°26'0 0.0
2017-Nov-15 11:27N 48°08' W 123°26'0 0.0
2017-Nov-15 11:00N 48°08' W 123°26'0 0.1
2017-Nov-15 10:30N 48°08' W 123°26'0 0.0
2017-Nov-15 10:00N 48°08' W 123°26'0 0.0
2017-Nov-15 09:24N 48°08' W 123°26'0 0.0
2017-Nov-15 08:27N 48°08' W 123°26'0 0.0
2017-Nov-15 05:42N 48°08' W 123°26'0 0.0
2017-Nov-15 05:21N 48°08' W 123°26'0 0.0
2017-Nov-15 04:51N 48°08' W 123°26'0 0.1
2017-Nov-15 04:25N 48°08' W 123°26'0 0.1
2017-Nov-15 03:48N 48°08' W 123°26'0 0.0
2017-Nov-15 03:30N 48°08' W 123°26'0 0.1
2017-Nov-15 02:57N 48°08' W 123°26'0 0.0
2017-Nov-15 02:24N 48°08' W 123°26'0 0.1
2017-Nov-15 02:00N 48°08' W 123°26'0 0.1
2017-Nov-15 01:27N 48°08' W 123°26'0 0.1
2017-Nov-15 00:57N 48°08' W 123°26'0 0.1
2017-Nov-15 00:30N 48°08' W 123°26'0 0.0
2017-Nov-14 23:57N 48°08' W 123°26'0 0.0
2017-Nov-14 23:30N 48°08' W 123°26'0 0.0
2017-Nov-14 22:57N 48°08' W 123°26'0 0.0
2017-Nov-14 22:30N 48°08' W 123°26'0 0.0
2017-Nov-14 22:00N 48°08' W 123°26'0 0.0
2017-Nov-14 21:30N 48°08' W 123°26'0 0.0
2017-Nov-14 21:00N 48°08' W 123°26'0 0.0
2017-Nov-14 20:27N 48°08' W 123°26'0 0.0
2017-Nov-14 19:57N 48°08' W 123°26'0 0.1
2017-Nov-14 19:30N 48°08' W 123°26'0 0.0
2017-Nov-14 18:57N 48°08' W 123°26'0 0.1
2017-Nov-14 18:30N 48°08' W 123°26'0 0.0
2017-Nov-14 17:54N 48°08' W 123°26'0 0.0
2017-Nov-14 17:30N 48°08' W 123°26'0 0.1
2017-Nov-14 17:00N 48°08' W 123°26'0 0.0
2017-Nov-14 16:30N 48°08' W 123°26'0 0.0
2017-Nov-14 16:00N 48°08' W 123°26'0 0.0
2017-Nov-14 15:30N 48°08' W 123°26'0 0.1
2017-Nov-14 15:00N 48°08' W 123°26'0 0.1
2017-Nov-14 14:27N 48°08' W 123°26'0 0.0
2017-Nov-14 13:57N 48°08' W 123°26'0 0.1
2017-Nov-14 13:30N 48°08' W 123°26'0 0.1
2017-Nov-14 12:57N 48°08' W 123°26'0 0.0
2017-Nov-14 12:30N 48°08' W 123°26'0 0.0
2017-Nov-14 11:54N 48°08' W 123°26'0 0.0
2017-Nov-14 11:30N 48°08' W 123°26'0 0.0
2017-Nov-14 11:00N 48°08' W 123°26'0 0.0
2017-Nov-14 10:30N 48°08' W 123°26'0 0.0
2017-Nov-14 09:57N 48°08' W 123°26'0 0.0
2017-Nov-14 09:30N 48°08' W 123°26'0 0.1
2017-Nov-14 08:57N 48°08' W 123°26'0 0.1
2017-Nov-14 08:30N 48°08' W 123°26'0 0.2
2017-Nov-14 07:57N 48°08' W 123°26'0 0.1
2017-Nov-14 07:27N 48°08' W 123°26'0 0.0
2017-Nov-14 07:00N 48°08' W 123°26'0 0.0
2017-Nov-14 06:30N 48°08' W 123°26'0 0.0
2017-Nov-14 05:57N 48°08' W 123°26'0 0.1
2017-Nov-14 05:30N 48°08' W 123°26'0 0.1
2017-Nov-14 04:54N 48°08' W 123°26'0 0.1
2017-Nov-14 04:30N 48°08' W 123°26'0 0.1
2017-Nov-14 04:00N 48°08' W 123°26'0 0.1
2017-Nov-14 03:21N 48°08' W 123°26'0 0.2
2017-Nov-14 03:00N 48°08' W 123°26'0 0.1
2017-Nov-14 02:27N 48°08' W 123°26'0 0.0
2017-Nov-14 02:00N 48°08' W 123°26'0 0.1
2017-Nov-14 01:30N 48°08' W 123°26'0 0.0
2017-Nov-14 01:00N 48°08' W 123°26'0 0.2
2017-Nov-14 00:30N 48°08' W 123°26'0 0.2
2017-Nov-14 00:00N 48°08' W 123°26'0 0.0
2017-Nov-13 23:30N 48°08' W 123°26'0 0.1
2017-Nov-13 23:00N 48°08' W 123°26'0 0.0
2017-Nov-13 22:30N 48°08' W 123°26'0 0.1
2017-Nov-13 22:00N 48°08' W 123°26'39 1.9
2017-Nov-13 02:01N 48°45' W 123°07'611.1
2017-Nov-13 01:29N 48°49' W 123°01'613.3
2017-Nov-13 01:00N 48°54' W 123°08'712.9
2017-Nov-13 00:30N 48°58' W 123°15'612.6
2017-Nov-13 00:00N 49°03' W 123°22'611.8
2017-Nov-12 23:30N 49°08' W 123°23'612.9
2017-Nov-12 23:00N 49°15' W 123°21'611.6
2017-Nov-12 22:30N 49°19' W 123°15'4 8.8
2017-Nov-12 22:00N 49°19' W 123°08'4 7.1
2017-Nov-12 21:30N 49°18' W 123°03'3 5.0
2017-Nov-12 20:59N 49°18' W 122°59'1 1.6
2017-Nov-12 20:26N 49°18' W 122°57'1 0.8
2017-Nov-12 19:18N 49°18' W 122°56'0 0.1
2017-Nov-12 18:45N 49°18' W 122°56'0 0.1
2017-Nov-12 18:21N 49°18' W 122°56'0 0.0
2017-Nov-12 18:00N 49°18' W 122°56'0 0.1
2017-Nov-12 17:30N 49°18' W 122°56'0 0.1
2017-Nov-12 15:54N 49°18' W 122°57'0 0.1
2017-Nov-12 14:36N 49°18' W 122°56'0 0.0
2017-Nov-12 14:30N 49°18' W 122°56'0 0.0
2017-Nov-12 13:30N 49°18' W 122°56'0 0.0
2017-Nov-12 12:00N 49°18' W 122°56'0 0.0
2017-Nov-12 10:48N 49°18' W 122°56'0 0.0
2017-Nov-12 10:12N 49°18' W 122°56'0 0.0
2017-Nov-12 10:00N 49°18' W 122°56'0 0.0
2017-Nov-12 08:36N 49°18' W 122°56'0 0.0
2017-Nov-12 08:18N 49°18' W 122°56'0 0.0
2017-Nov-12 07:51N 49°18' W 122°56'0 0.0
2017-Nov-12 07:31N 49°18' W 122°56'0 0.0
2017-Nov-12 07:00N 49°18' W 122°56'0 0.1
2017-Nov-12 06:30N 49°18' W 122°56'0 0.0
2017-Nov-12 06:00N 49°18' W 122°56'0 0.1
2017-Nov-12 05:30N 49°18' W 122°57'0 0.1
2017-Nov-12 05:00N 49°18' W 122°56'0 0.2
2017-Nov-12 04:30N 49°18' W 122°57'1 2.5
2017-Nov-12 04:01N 49°17' W 122°58'0 0.0
2017-Nov-12 03:30N 49°17' W 122°58'0 0.0
2017-Nov-12 03:00N 49°17' W 122°58'0 0.0
2017-Nov-12 02:23N 49°17' W 122°58'0 0.0
2017-Nov-12 01:53N 49°17' W 122°58'0 0.0
2017-Nov-12 01:29N 49°17' W 122°58'0 0.0
2017-Nov-12 00:53N 49°17' W 122°58'0 0.0
2017-Nov-12 00:14N 49°17' W 122°58'0 0.0
2017-Nov-11 23:59N 49°17' W 122°58'0 0.0
2017-Nov-11 23:17N 49°17' W 122°58'0 0.0
2017-Nov-11 22:59N 49°17' W 122°58'0 0.0
2017-Nov-11 22:29N 49°17' W 122°58'0 0.0
2017-Nov-11 21:53N 49°17' W 122°58'0 0.0
2017-Nov-11 20:53N 49°17' W 122°58'0 0.0
2017-Nov-11 20:23N 49°17' W 122°58'0 0.0
2017-Nov-11 19:41N 49°17' W 122°58'0 0.0
2017-Nov-11 19:23N 49°17' W 122°58'0 0.0
2017-Nov-11 18:59N 49°17' W 122°58'0 0.0
2017-Nov-11 18:29N 49°17' W 122°58'0 0.0
2017-Nov-11 17:53N 49°17' W 122°58'0 0.0
2017-Nov-11 17:11N 49°17' W 122°58'0 0.0
2017-Nov-11 16:44N 49°17' W 122°58'0 0.0
2017-Nov-11 16:20N 49°17' W 122°58'0 0.0
2017-Nov-11 15:59N 49°17' W 122°58'0 0.0
2017-Nov-11 15:26N 49°17' W 122°58'0 0.0
2017-Nov-11 14:53N 49°17' W 122°58'0 0.0
2017-Nov-11 14:17N 49°17' W 122°58'0 0.0
2017-Nov-11 13:59N 49°17' W 122°58'0 0.0
2017-Nov-11 13:23N 49°17' W 122°58'0 0.0
2017-Nov-11 12:50N 49°17' W 122°58'0 0.0
2017-Nov-11 12:23N 49°17' W 122°58'0 0.0
2017-Nov-11 11:59N 49°17' W 122°58'0 0.0
2017-Nov-11 11:26N 49°17' W 122°58'0 0.0
2017-Nov-11 10:47N 49°17' W 122°58'0 0.0
2017-Nov-11 08:26N 49°17' W 122°58'0 0.0
2017-Nov-11 07:53N 49°17' W 122°58'0 0.0
2017-Nov-11 06:17N 49°17' W 122°58'0 0.0
2017-Nov-11 05:35N 49°17' W 122°58'0 0.0
2017-Nov-11 05:17N 49°17' W 122°58'0 0.0
2017-Nov-11 04:41N 49°17' W 122°58'0 0.0
2017-Nov-11 04:23N 49°17' W 122°58'0 0.0
2017-Nov-11 03:56N 49°17' W 122°58'0 0.0
2017-Nov-11 03:26N 49°17' W 122°58'0 0.0
2017-Nov-11 02:59N 49°17' W 122°58'0 0.0
2017-Nov-11 02:11N 49°17' W 122°58'0 0.0
2017-Nov-11 01:59N 49°17' W 122°58'0 0.0
2017-Nov-11 01:26N 49°17' W 122°58'0 0.0
2017-Nov-11 00:56N 49°17' W 122°58'0 0.0
2017-Nov-11 00:08N 49°17' W 122°58'0 0.0
2017-Nov-10 23:59N 49°17' W 122°58'0 0.0
2017-Nov-10 23:11N 49°17' W 122°58'0 0.0
2017-Nov-10 22:56N 49°17' W 122°58'0 0.0
2017-Nov-10 22:26N 49°17' W 122°58'0 0.0
2017-Nov-10 21:56N 49°17' W 122°58'0 0.0
2017-Nov-10 21:29N 49°17' W 122°58'0 0.0
2017-Nov-10 20:59N 49°17' W 122°58'0 0.6
2017-Nov-10 20:30N 49°18' W 122°58'3 5.1
2017-Nov-10 20:00N 49°18' W 123°02'1 2.4
2017-Nov-10 19:30N 49°18' W 123°04'0 0.4
2017-Nov-10 19:00N 49°18' W 123°04'0 0.1
2017-Nov-10 18:27N 49°18' W 123°04'0 0.1
2017-Nov-10 18:00N 49°18' W 123°04'0 0.1
2017-Nov-10 17:30N 49°18' W 123°04'0 0.1
2017-Nov-10 17:00N 49°18' W 123°04'0 0.2
2017-Nov-10 16:30N 49°18' W 123°04'0 0.0
2017-Nov-10 16:00N 49°18' W 123°04'0 0.0
2017-Nov-10 15:30N 49°18' W 123°04'0 0.1
2017-Nov-10 14:57N 49°18' W 123°04'0 0.1
2017-Nov-10 14:30N 49°18' W 123°04'0 0.2
2017-Nov-10 14:00N 49°18' W 123°04'0 0.1
2017-Nov-10 13:30N 49°18' W 123°04'0 0.1
2017-Nov-10 13:00N 49°18' W 123°04'0 0.0
2017-Nov-10 12:30N 49°18' W 123°04'0 0.0
2017-Nov-10 12:00N 49°18' W 123°04'0 0.0
2017-Nov-10 11:30N 49°18' W 123°04'0 0.2
2017-Nov-10 11:00N 49°18' W 123°04'0 0.1
2017-Nov-10 10:24N 49°18' W 123°04'0 0.0
2017-Nov-10 10:00N 49°18' W 123°04'0 0.0
2017-Nov-10 09:30N 49°18' W 123°04'0 0.0
2017-Nov-10 09:00N 49°18' W 123°04'0 0.0
2017-Nov-10 08:30N 49°18' W 123°04'0 0.0
2017-Nov-10 08:00N 49°18' W 123°04'0 0.0
2017-Nov-10 07:30N 49°18' W 123°04'0 0.0
2017-Nov-10 07:00N 49°18' W 123°04'0 0.0
2017-Nov-10 06:30N 49°18' W 123°04'0 0.1
2017-Nov-10 06:00N 49°18' W 123°04'2 3.7
2017-Nov-10 05:30N 49°18' W 123°07'3 6.4
2017-Nov-10 05:00N 49°19' W 123°12'5 9.8
2017-Nov-10 04:31N 49°17' W 123°18'5 9.5
2017-Nov-10 04:00N 49°12' W 123°20'510.5
2017-Nov-10 03:30N 49°07' W 123°21'611.2
2017-Nov-10 03:00N 49°02' W 123°18'612.1
2017-Nov-10 02:30N 48°58' W 123°11'612.1
2017-Nov-10 02:00N 48°54' W 123°03'612.3
2017-Nov-10 01:30N 48°50' W 122°56'811.9
2017-Nov-10 00:50N 48°46' W 122°46'412.2
2017-Nov-10 00:30N 48°42' W 122°43'611.5
2017-Nov-10 00:00N 48°38' W 122°38'510.4
2017-Nov-09 23:30N 48°33' W 122°34'2 4.3
2017-Nov-09 22:57N 48°31' W 122°35'0 0.0
2017-Nov-09 22:27N 48°31' W 122°35'0 0.0
2017-Nov-09 21:57N 48°31' W 122°35'0 0.0
2017-Nov-09 21:27N 48°31' W 122°35'0 0.0
2017-Nov-09 20:51N 48°31' W 122°35'0 0.0
2017-Nov-09 20:27N 48°31' W 122°35'0 0.0
2017-Nov-09 19:57N 48°31' W 122°35'0 0.0
2017-Nov-09 19:27N 48°31' W 122°35'  

Dump ship's entire track history